createdAt,value
2018-05-15T00:01:45.936Z,12.57
2018-05-15T00:04:14.323Z,12.60
2018-05-15T00:06:41.903Z,12.30
2018-05-15T00:09:09.526Z,11.97
2018-05-15T00:11:37.106Z,13.50
2018-05-15T00:14:04.724Z,11.53
2018-05-15T00:16:32.303Z,12.50
2018-05-15T00:18:59.917Z,11.23
2018-05-15T00:21:27.510Z,11.03
2018-05-15T00:23:55.118Z,10.37
2018-05-15T00:26:23.461Z,10.87
2018-05-15T00:28:51.069Z,10.60
2018-05-15T00:31:18.703Z,10.93
2018-05-15T00:33:46.311Z,10.37
2018-05-15T00:36:13.881Z,10.10
2018-05-15T00:38:41.494Z,10.67
2018-05-15T00:41:09.062Z,9.97
2018-05-15T00:43:36.670Z,11.17
2018-05-15T00:46:04.253Z,10.10
2018-05-15T00:48:31.868Z,9.30
2018-05-15T00:51:00.215Z,9.57
2018-05-15T00:53:27.823Z,9.63
2018-05-15T00:55:55.390Z,8.53
2018-05-15T00:58:22.998Z,9.53
2018-05-15T01:00:51.366Z,9.83
2018-05-15T01:03:18.981Z,10.73
2018-05-15T01:05:46.562Z,9.70
2018-05-15T01:08:14.170Z,9.17
2018-05-15T01:10:41.746Z,9.90
2018-05-15T01:13:09.350Z,8.27
2018-05-15T01:15:36.921Z,8.13
2018-05-15T01:18:04.542Z,8.83
2018-05-15T01:20:32.108Z,8.20
2018-05-15T01:23:00.446Z,9.13
2018-05-15T01:25:28.055Z,8.10
2018-05-15T01:27:55.635Z,8.33
2018-05-15T01:30:23.247Z,8.47
2018-05-15T01:32:50.822Z,7.77
2018-05-15T01:35:19.947Z,8.60
2018-05-15T01:37:47.523Z,7.80
2018-05-15T01:40:15.129Z,7.70
2018-05-15T01:42:42.706Z,7.77
2018-05-15T01:45:10.318Z,7.27
2018-05-15T01:47:38.658Z,8.73
2018-05-15T01:50:06.280Z,7.80
2018-05-15T01:52:33.854Z,7.53
2018-05-15T01:55:01.462Z,7.60
2018-05-15T01:57:29.042Z,7.50
2018-05-15T01:59:57.414Z,8.00
2018-05-15T02:02:24.994Z,8.47
2018-05-15T02:04:52.602Z,8.13
2018-05-15T02:07:20.178Z,7.93
2018-05-15T02:09:47.790Z,8.47
2018-05-15T02:12:16.142Z,8.90
2018-05-15T02:14:43.751Z,8.37
2018-05-15T02:17:11.326Z,8.63
2018-05-15T02:19:38.934Z,7.83
2018-05-15T02:22:06.509Z,9.17
2018-05-15T02:24:34.127Z,8.47
2018-05-15T02:27:02.466Z,8.43
2018-05-15T02:29:30.074Z,9.20
2018-05-15T02:31:58.361Z,8.33
2018-05-15T02:34:25.975Z,8.73
2018-05-15T02:36:53.550Z,8.83
2018-05-15T02:39:21.162Z,9.00
2018-05-15T02:41:49.503Z,8.97
2018-05-15T02:44:17.118Z,8.90
2018-05-15T02:46:44.704Z,9.07
2018-05-15T02:49:12.277Z,9.33
2018-05-15T02:51:39.894Z,10.33
2018-05-15T02:54:07.478Z,10.00
2018-05-15T02:56:35.855Z,9.17
2018-05-15T02:59:03.435Z,10.33
2018-05-15T03:01:31.049Z,10.23
2018-05-15T03:03:58.632Z,9.60
2018-05-15T03:06:26.247Z,9.53
2018-05-15T03:08:53.834Z,10.43
2018-05-15T03:11:21.442Z,9.10
2018-05-15T03:13:49.014Z,10.53
2018-05-15T03:16:16.643Z,10.37
2018-05-15T03:18:44.224Z,10.47
2018-05-15T03:21:11.850Z,10.40
2018-05-15T03:23:40.195Z,10.07
2018-05-15T03:26:07.815Z,10.57
2018-05-15T03:28:35.390Z,11.03
2018-05-15T03:31:03.770Z,10.57
2018-05-15T03:33:31.362Z,9.90
2018-05-15T03:35:58.978Z,10.40
2018-05-15T03:38:27.329Z,10.07
2018-05-15T03:40:54.937Z,12.03
2018-05-15T03:43:22.515Z,10.77
2018-05-15T03:45:50.125Z,10.33
2018-05-15T03:48:17.709Z,10.57
2018-05-15T03:50:45.326Z,9.47
2018-05-15T03:53:12.901Z,11.73
2018-05-15T03:55:41.276Z,10.13
2018-05-15T03:58:09.626Z,10.00
2018-05-15T04:00:49.106Z,10.00
2018-05-15T04:03:28.617Z,9.83
2018-05-15T04:06:08.082Z,11.07
2018-05-15T04:08:35.704Z,9.30
2018-05-15T04:11:03.373Z,10.83
2018-05-15T04:13:30.937Z,9.77
2018-05-15T04:16:00.063Z,9.10
2018-05-15T04:18:28.510Z,9.80
2018-05-15T04:20:56.114Z,9.43
2018-05-15T04:23:23.690Z,10.20
2018-05-15T04:25:51.298Z,9.47
2018-05-15T04:28:18.952Z,9.07
2018-05-15T04:30:46.511Z,9.10
2018-05-15T04:33:14.845Z,9.47
2018-05-15T04:35:42.463Z,8.70
2018-05-15T04:38:10.041Z,9.27
2018-05-15T04:40:37.654Z,8.87
2018-05-15T04:43:05.255Z,10.67
2018-05-15T04:45:33.594Z,8.40
2018-05-15T04:48:01.207Z,8.97
2018-05-15T04:50:28.781Z,8.60
2018-05-15T04:52:56.395Z,8.83
2018-05-15T04:55:23.966Z,8.83
2018-05-15T04:57:51.578Z,8.00
2018-05-15T05:00:20.232Z,8.30
2018-05-15T05:02:47.887Z,7.97
2018-05-15T05:05:16.523Z,7.93
2018-05-15T05:07:44.127Z,8.20
2018-05-15T05:10:11.723Z,8.37
2018-05-15T05:12:39.346Z,10.17
2018-05-15T05:15:07.850Z,7.23
2018-05-15T05:17:36.230Z,7.93
2018-05-15T05:20:03.967Z,8.07
2018-05-15T05:22:31.578Z,8.23
2018-05-15T05:24:59.154Z,7.27
2018-05-15T05:27:26.770Z,7.37
2018-05-15T05:29:54.401Z,7.63
2018-05-15T05:32:22.006Z,7.23
2018-05-15T05:34:49.586Z,6.90
2018-05-15T05:37:17.197Z,6.90
2018-05-15T05:39:44.778Z,8.13
2018-05-15T05:42:12.390Z,8.33
2018-05-15T05:44:39.971Z,7.47
2018-05-15T05:47:07.582Z,7.90
2018-05-15T05:49:35.926Z,7.23
2018-05-15T05:52:03.596Z,7.77
2018-05-15T05:54:31.146Z,7.03
2018-05-15T05:56:59.490Z,7.80
2018-05-15T05:59:27.102Z,7.00
2018-05-15T06:01:54.706Z,8.00
2018-05-15T06:04:22.330Z,7.57
2018-05-15T06:06:49.921Z,5.97
2018-05-15T06:09:17.530Z,6.60
2018-05-15T06:11:45.106Z,6.77
2018-05-15T06:14:12.804Z,6.33
2018-05-15T06:16:40.326Z,7.03
2018-05-15T06:19:07.942Z,6.70
2018-05-15T06:21:35.545Z,6.27
2018-05-15T06:24:03.154Z,7.20
2018-05-15T06:26:30.726Z,6.83
2018-05-15T06:28:58.335Z,6.50
2018-05-15T06:31:25.914Z,6.87
2018-05-15T06:33:53.523Z,7.57
2018-05-15T06:36:21.864Z,5.83
2018-05-15T06:38:49.555Z,6.70
2018-05-15T06:41:17.130Z,7.37
2018-05-15T06:43:44.739Z,6.70
2018-05-15T06:46:12.318Z,6.40
2018-05-15T06:48:39.926Z,6.13
2018-05-15T06:51:07.504Z,6.90
2018-05-15T06:53:35.121Z,6.07
2018-05-15T06:56:02.742Z,6.33
2018-05-15T06:58:30.352Z,5.67
2018-05-15T07:00:57.932Z,6.47
2018-05-15T07:03:25.541Z,6.30
2018-05-15T07:05:53.878Z,6.10
2018-05-15T07:08:22.253Z,6.37
2018-05-15T07:10:50.590Z,6.23
2018-05-15T07:13:18.967Z,6.47
2018-05-15T07:15:46.549Z,6.63
2018-05-15T07:18:14.198Z,5.77
2018-05-15T07:23:15.646Z,8.03
2018-05-15T07:25:43.258Z,7.20
2018-05-15T07:28:11.601Z,6.47
2018-05-15T07:30:39.271Z,7.37
2018-05-15T07:33:06.915Z,5.50
2018-05-15T07:35:34.499Z,6.67
2018-05-15T07:38:02.521Z,5.00
2018-05-15T07:40:30.161Z,5.60
2018-05-15T07:42:57.735Z,6.23
2018-05-15T07:45:25.684Z,6.03
2018-05-15T07:47:54.026Z,5.70
2018-05-15T07:50:22.260Z,6.30
2018-05-15T07:52:49.841Z,6.67
2018-05-15T07:55:17.451Z,8.13
2018-05-15T07:57:45.785Z,6.70
2018-05-15T08:00:13.654Z,7.33
2018-05-15T08:02:42.000Z,8.67
2018-05-15T08:05:09.877Z,9.40
2018-05-15T08:07:37.450Z,10.83
2018-05-15T08:10:05.130Z,11.47
2018-05-15T08:12:33.474Z,12.73
2018-05-15T08:15:01.091Z,13.33
2018-05-15T08:17:28.671Z,15.17
2018-05-15T08:19:56.282Z,13.27
2018-05-15T08:22:24.623Z,14.77
2018-05-15T08:24:52.254Z,15.53
2018-05-15T08:27:19.830Z,14.00
2018-05-15T08:29:47.452Z,16.43
2018-05-15T08:32:15.039Z,16.30
2018-05-15T08:34:42.674Z,17.20
2018-05-15T08:37:10.257Z,16.40
2018-05-15T08:39:37.874Z,17.17
2018-05-15T08:42:06.218Z,16.80
2018-05-15T08:44:33.805Z,16.30
2018-05-15T08:47:01.554Z,17.83
2018-05-15T08:49:29.090Z,16.63
2018-05-15T08:51:56.702Z,18.80
2018-05-15T08:54:24.290Z,18.07
2018-05-15T08:56:51.902Z,18.90
2018-05-15T08:59:20.246Z,19.63
2018-05-15T09:01:47.873Z,18.27
2018-05-15T09:04:16.216Z,17.33
2018-05-15T09:06:43.826Z,17.47
2018-05-15T09:09:11.414Z,17.77
2018-05-15T09:11:39.035Z,19.40
2018-05-15T09:14:07.386Z,17.77
2018-05-15T09:16:35.002Z,17.63
2018-05-15T09:19:02.630Z,18.13
2018-05-15T09:21:30.242Z,18.37
2018-05-15T09:23:57.826Z,16.13
2018-05-15T09:26:25.442Z,15.10
2018-05-15T09:28:53.174Z,16.27
2018-05-15T09:31:20.793Z,16.93
2018-05-15T09:33:48.438Z,16.10
2018-05-15T09:36:16.050Z,15.77
2018-05-15T09:38:43.634Z,16.60
2018-05-15T09:41:11.301Z,14.60
2018-05-15T09:43:53.753Z,13.63
2018-05-15T09:46:21.366Z,14.13
2018-05-15T09:48:48.946Z,13.80
2018-05-15T09:51:16.594Z,15.63
2018-05-15T09:53:44.176Z,15.87
2018-05-15T09:56:11.786Z,15.23
2018-05-15T09:58:39.457Z,14.07
2018-05-15T10:01:07.047Z,14.93
2018-05-15T10:03:34.682Z,13.77
2018-05-15T10:06:03.242Z,15.93
2018-05-15T10:08:30.990Z,15.90
2018-05-15T10:10:58.513Z,14.47
2018-05-15T10:13:26.133Z,13.77
2018-05-15T10:15:53.713Z,16.17
2018-05-15T10:18:21.327Z,15.40
2018-05-15T10:20:49.702Z,17.27
2018-05-15T10:23:17.318Z,15.73
2018-05-15T10:25:44.894Z,15.93
2018-05-15T10:28:12.507Z,15.60
2018-05-15T10:30:40.853Z,16.20
2018-05-15T10:33:08.466Z,14.43
2018-05-15T10:35:36.046Z,15.20
2018-05-15T10:38:03.658Z,20.37
2018-05-15T10:40:32.005Z,18.53
2018-05-15T10:42:59.618Z,14.50
2018-05-15T10:45:27.473Z,13.73
2018-05-15T10:47:55.211Z,14.30
2018-05-15T10:50:23.054Z,15.90
2018-05-15T10:52:50.667Z,14.13
2018-05-15T10:55:18.262Z,11.13
2018-05-15T10:57:45.875Z,10.83
2018-05-15T11:00:14.454Z,9.93
2018-05-15T11:02:42.079Z,9.83
2018-05-15T11:05:09.900Z,9.20
2018-05-15T11:07:37.507Z,8.63
2018-05-15T11:10:05.115Z,9.90
2018-05-15T11:12:32.730Z,9.80
2018-05-15T11:15:00.306Z,9.57
2018-05-15T11:17:27.910Z,8.30
2018-05-15T11:20:07.607Z,9.33
2018-05-15T11:22:47.066Z,10.10
2018-05-15T11:25:14.642Z,9.47
2018-05-15T11:27:42.242Z,9.47
2018-05-15T11:30:10.360Z,10.27
2018-05-15T11:32:37.970Z,9.23
2018-05-15T11:35:06.514Z,9.20
2018-05-15T11:37:34.118Z,8.97
2018-05-15T11:40:02.026Z,9.40
2018-05-15T11:42:29.648Z,8.33
2018-05-15T11:44:57.222Z,9.87
2018-05-15T11:47:25.731Z,8.70
2018-05-15T11:49:54.988Z,8.97
2018-05-15T11:52:23.792Z,8.27
2018-05-15T11:54:50.718Z,8.40
2018-05-15T11:57:19.062Z,9.10
2018-05-15T11:59:46.719Z,8.53
2018-05-15T12:02:14.278Z,8.30
2018-05-15T12:04:54.873Z,8.43
2018-05-15T12:07:22.451Z,8.77
2018-05-15T12:09:50.251Z,7.33
2018-05-15T12:12:18.598Z,7.57
2018-05-15T12:14:46.206Z,7.60
2018-05-15T12:17:13.857Z,9.07
2018-05-15T12:19:41.470Z,7.50
2018-05-15T12:22:09.050Z,7.80
2018-05-15T12:24:36.683Z,7.67
2018-05-15T12:27:05.034Z,7.20
2018-05-15T12:29:32.637Z,7.47
2018-05-15T12:32:00.218Z,7.53
2018-05-15T12:34:27.830Z,7.27
2018-05-15T12:36:55.401Z,8.00
2018-05-15T12:39:23.014Z,9.07
2018-05-15T12:41:51.504Z,8.83
2018-05-15T12:44:18.989Z,8.93
2018-05-15T12:46:46.620Z,8.63
2018-05-15T12:49:14.966Z,8.27
2018-05-15T12:51:42.538Z,8.67
2018-05-15T12:54:10.174Z,8.60
2018-05-15T12:56:37.763Z,8.57
2018-05-15T12:59:05.375Z,7.93
2018-05-15T13:01:33.045Z,7.67
2018-05-15T13:04:00.650Z,8.37
2018-05-15T13:06:28.225Z,7.57
2018-05-15T13:08:55.835Z,7.03
2018-05-15T13:11:23.414Z,8.53
2018-05-15T13:13:51.023Z,7.70
2018-05-15T13:16:18.606Z,7.30
2018-05-15T13:18:46.217Z,7.17
2018-05-15T13:21:14.558Z,7.37
2018-05-15T13:23:42.171Z,6.70
2018-05-15T13:26:11.260Z,6.87
2018-05-15T13:28:38.861Z,6.63
2018-05-15T13:31:06.434Z,7.07
2018-05-15T13:33:34.047Z,6.80
2018-05-15T13:36:01.622Z,8.13
2018-05-15T13:38:29.229Z,7.67
2018-05-15T13:40:58.393Z,7.03
2018-05-15T13:43:25.958Z,8.93
2018-05-15T13:45:54.345Z,7.57
2018-05-15T13:48:21.925Z,8.87
2018-05-15T13:50:50.306Z,7.20
2018-05-15T13:53:17.894Z,7.10
2018-05-15T13:55:45.511Z,8.43
2018-05-15T13:58:13.850Z,8.00
2018-05-15T14:00:41.462Z,8.00
2018-05-15T14:03:09.038Z,8.20
2018-05-15T14:05:36.647Z,9.83
2018-05-15T14:08:04.243Z,8.50
2018-05-15T14:10:31.849Z,8.97
2018-05-15T14:13:00.198Z,9.37
2018-05-15T14:15:28.019Z,8.40
2018-05-15T14:17:55.595Z,10.17
2018-05-15T14:20:23.544Z,9.33
2018-05-15T14:22:51.124Z,9.53
2018-05-15T14:25:18.739Z,10.47
2018-05-15T14:27:46.319Z,9.43
2018-05-15T14:30:14.299Z,11.80
2018-05-15T14:32:41.878Z,12.23
2018-05-15T14:35:09.721Z,21.97
2018-05-15T14:37:37.310Z,11.83
2018-05-15T14:40:05.717Z,11.97
2018-05-15T14:42:45.090Z,11.47
2018-05-15T14:45:16.805Z,10.40
2018-05-15T14:47:44.394Z,14.37
2018-05-15T14:50:12.285Z,13.10
2018-05-15T14:52:39.869Z,19.03
2018-05-15T14:55:07.768Z,13.90
2018-05-15T14:57:35.348Z,12.17
2018-05-15T15:00:03.345Z,17.17
2018-05-15T15:02:30.927Z,13.37
2018-05-15T15:04:58.546Z,13.40
2018-05-15T15:07:26.126Z,12.90
2018-05-15T15:09:53.746Z,13.40
2018-05-15T15:12:22.091Z,13.87
2018-05-15T15:14:49.705Z,16.07
2018-05-15T15:17:17.417Z,14.73
2018-05-15T15:19:44.934Z,15.73
2018-05-15T15:22:12.547Z,14.40
2018-05-15T15:24:40.142Z,12.27
2018-05-15T15:27:07.759Z,11.13
2018-05-15T15:29:36.114Z,10.93
2018-05-15T15:32:03.718Z,9.97
2018-05-15T15:34:31.302Z,11.87
2018-05-15T15:36:58.918Z,11.50
2018-05-15T15:39:26.505Z,9.97
2018-05-15T15:41:54.127Z,9.90
2018-05-15T15:44:21.711Z,11.17
2018-05-15T15:46:49.326Z,11.60
2018-05-15T15:49:16.963Z,12.77
2018-05-15T15:51:44.596Z,13.10
2018-05-15T15:54:12.646Z,13.03
2018-05-15T15:56:40.273Z,17.93
2018-05-15T15:59:07.858Z,15.97
2018-05-15T16:01:35.491Z,20.10
2018-05-15T16:04:03.205Z,16.83
2018-05-15T16:06:31.832Z,19.73
2018-05-15T16:08:59.417Z,18.13
2018-05-15T16:11:27.058Z,21.87
2018-05-15T16:13:54.633Z,21.60
2018-05-15T16:16:23.020Z,23.40
2018-05-15T16:18:51.457Z,21.87
2018-05-15T16:21:19.069Z,22.53
2018-05-15T16:23:46.658Z,23.07
2018-05-15T16:26:14.282Z,27.40
2018-05-15T16:28:42.069Z,24.40
2018-05-15T16:31:10.475Z,25.07
2018-05-15T16:33:38.827Z,27.27
2018-05-15T16:36:06.414Z,26.63
2018-05-15T16:38:34.027Z,27.33
2018-05-15T16:41:01.611Z,27.63
2018-05-15T16:43:29.253Z,27.73
2018-05-15T16:45:56.846Z,27.43
2018-05-15T16:48:24.462Z,31.30
2018-05-15T16:50:52.042Z,31.13
2018-05-15T16:53:19.686Z,32.77
2018-05-15T16:55:47.270Z,30.03
2018-05-15T16:58:14.901Z,31.60
2018-05-15T17:00:42.504Z,31.80
2018-05-15T17:03:10.144Z,34.53
2018-05-15T17:05:37.722Z,36.67
2018-05-15T17:08:05.409Z,37.70
2018-05-15T17:10:33.738Z,38.33
2018-05-15T17:13:01.385Z,38.37
2018-05-15T17:15:29.296Z,39.50
2018-05-15T17:17:56.914Z,42.67
2018-05-15T17:20:24.776Z,41.20
2018-05-15T17:22:52.386Z,39.60
2018-05-15T17:25:19.972Z,41.73
2018-05-15T17:27:49.107Z,78.93
2018-05-15T17:30:16.957Z,61.20
2018-05-15T17:32:44.586Z,50.47
2018-05-15T17:35:12.426Z,56.33
2018-05-15T17:37:40.059Z,57.27
2018-05-15T17:40:07.718Z,63.73
2018-05-15T17:42:35.333Z,56.07
2018-05-15T17:45:03.395Z,58.50
2018-05-15T17:47:31.107Z,57.63
2018-05-15T17:49:59.392Z,57.90
2018-05-15T17:52:27.011Z,60.80
2018-05-15T17:54:55.364Z,56.70
2018-05-15T17:57:22.989Z,54.93
2018-05-15T17:59:50.601Z,57.53
2018-05-15T18:02:18.247Z,57.40
2018-05-15T18:04:45.867Z,55.77
2018-05-15T18:07:14.209Z,54.90
2018-05-15T18:09:41.822Z,53.67
2018-05-15T18:12:10.181Z,56.73
2018-05-15T18:14:37.814Z,54.37
2018-05-15T18:17:05.406Z,55.60
2018-05-15T18:19:33.075Z,54.37
2018-05-15T18:22:00.666Z,56.93
2018-05-15T18:24:29.051Z,53.97
2018-05-15T18:26:56.634Z,52.70
2018-05-15T18:29:24.291Z,53.10
2018-05-15T18:31:51.976Z,53.37
2018-05-15T18:34:19.602Z,54.83
2018-05-15T18:36:47.178Z,54.97
2018-05-15T18:39:14.790Z,54.10
2018-05-15T18:41:43.238Z,52.20
2018-05-15T18:44:10.856Z,51.37
2018-05-15T18:46:38.462Z,51.83
2018-05-15T18:49:06.096Z,54.70
2018-05-15T18:51:33.683Z,53.37
2018-05-15T18:54:01.455Z,50.80
2018-05-15T18:56:29.806Z,48.63
2018-05-15T18:58:57.446Z,49.40
2018-05-15T19:01:25.794Z,50.43
2018-05-15T19:03:53.407Z,49.73
2018-05-15T19:06:20.995Z,46.90
2018-05-15T19:08:48.611Z,47.17
2018-05-15T19:11:19.963Z,45.33
2018-05-15T19:13:48.432Z,45.53
2018-05-15T19:16:15.974Z,44.77
2018-05-15T19:18:43.587Z,45.20
2018-05-15T19:21:11.167Z,43.03
2018-05-15T19:23:38.802Z,43.50
2018-05-15T19:26:06.474Z,41.73
2018-05-15T19:28:34.128Z,40.83
2018-05-15T19:31:01.715Z,38.90
2018-05-15T19:33:34.999Z,39.40
2018-05-15T19:36:09.257Z,36.90
2018-05-15T19:38:36.875Z,37.43
2018-05-15T19:41:06.297Z,37.67
2018-05-15T19:43:33.920Z,37.17
2018-05-15T19:46:01.514Z,35.57
2018-05-15T19:48:29.902Z,33.67
2018-05-15T19:50:57.511Z,34.37
2018-05-15T19:53:25.215Z,34.57
2018-05-15T19:55:52.842Z,33.80
2018-05-15T19:58:20.449Z,32.70
2018-05-15T20:00:48.098Z,32.70
2018-05-15T20:03:15.683Z,31.10
2018-05-15T20:05:43.308Z,32.27
2018-05-15T20:08:10.892Z,31.63
2018-05-15T20:10:38.520Z,30.73
2018-05-15T20:13:06.109Z,29.37
2018-05-15T20:15:33.804Z,27.50
2018-05-15T20:18:02.107Z,27.23
2018-05-15T20:20:29.743Z,27.23
2018-05-15T20:22:58.094Z,27.60
2018-05-15T20:25:25.713Z,25.63
2018-05-15T20:27:53.346Z,27.27
2018-05-15T20:30:21.210Z,25.77
2018-05-15T20:32:49.770Z,24.67
2018-05-15T20:35:17.705Z,23.87
2018-05-15T20:37:46.049Z,23.83
2018-05-15T20:40:13.663Z,23.07
2018-05-15T20:42:41.246Z,21.07
2018-05-15T20:45:09.063Z,21.70
2018-05-15T20:47:37.411Z,21.17
2018-05-15T20:50:05.150Z,21.27
2018-05-15T20:52:32.731Z,20.10
2018-05-15T20:55:00.347Z,18.57
2018-05-15T20:57:27.931Z,19.57
2018-05-15T20:59:55.650Z,19.27
2018-05-15T21:02:23.234Z,19.17
2018-05-15T21:04:50.849Z,18.37
2018-05-15T21:07:18.458Z,18.53
2018-05-15T21:09:46.806Z,17.33
2018-05-15T21:12:14.431Z,17.60
2018-05-15T21:14:42.791Z,16.50
2018-05-15T21:17:10.410Z,16.97
2018-05-15T21:19:37.990Z,15.43
2018-05-15T21:22:05.606Z,15.60
2018-05-15T21:24:34.026Z,15.70
2018-05-15T21:27:01.645Z,16.23
2018-05-15T21:29:29.258Z,14.93
2018-05-15T21:31:57.648Z,14.60
2018-05-15T21:34:25.252Z,14.50
2018-05-15T21:36:52.912Z,14.40
2018-05-15T21:39:20.481Z,13.93
2018-05-15T21:41:48.142Z,14.87
2018-05-15T21:44:15.721Z,13.63
2018-05-15T21:46:43.334Z,14.63
2018-05-15T21:49:10.927Z,13.67
2018-05-15T21:51:38.542Z,13.97
2018-05-15T21:54:06.122Z,14.20
2018-05-15T21:56:33.742Z,13.83
2018-05-15T21:59:01.317Z,14.27
2018-05-15T22:01:29.704Z,13.00
2018-05-15T22:03:57.414Z,14.60
2018-05-15T22:06:25.791Z,13.33
2018-05-15T22:08:53.384Z,15.23
2018-05-15T22:11:20.508Z,14.87
2018-05-15T22:14:00.039Z,14.83
2018-05-15T22:16:40.338Z,15.00
2018-05-15T22:19:19.774Z,15.63
2018-05-15T22:21:59.999Z,19.13
2018-05-15T22:24:28.450Z,16.30
2018-05-15T22:26:56.825Z,17.30
2018-05-15T22:29:24.404Z,18.17
2018-05-15T22:31:52.022Z,18.27
2018-05-15T22:34:19.606Z,19.20
2018-05-15T22:36:47.222Z,20.50
2018-05-15T22:39:14.844Z,19.87
2018-05-15T22:41:42.469Z,22.13
2018-05-15T22:44:10.074Z,21.07
2018-05-15T22:46:39.126Z,21.17
2018-05-15T22:49:06.713Z,20.90
2018-05-15T22:51:34.338Z,21.43
2018-05-15T22:54:02.687Z,20.43
2018-05-15T22:56:30.303Z,21.07
2018-05-15T22:58:57.884Z,21.97
2018-05-15T23:01:25.499Z,21.60
2018-05-15T23:03:53.081Z,23.07
2018-05-15T23:06:20.709Z,21.30
2018-05-15T23:08:48.285Z,23.53
2018-05-15T23:11:15.904Z,22.87
2018-05-15T23:13:43.490Z,22.40
2018-05-15T23:16:11.145Z,23.63
2018-05-15T23:18:38.759Z,24.67
2018-05-15T23:21:06.347Z,24.50
2018-05-15T23:23:33.967Z,23.80
2018-05-15T23:26:01.546Z,24.13
2018-05-15T23:28:29.163Z,24.27
2018-05-15T23:30:56.746Z,24.57
2018-05-15T23:33:25.122Z,24.73
2018-05-15T23:35:52.796Z,25.70
2018-05-15T23:38:20.354Z,24.83
2018-05-15T23:40:47.950Z,25.27
2018-05-15T23:43:15.578Z,25.47
2018-05-15T23:45:43.923Z,24.73
2018-05-15T23:48:11.542Z,24.17
2018-05-15T23:50:39.126Z,26.90
2018-05-15T23:53:06.733Z,24.07
2018-05-15T23:55:35.086Z,24.83
2018-05-15T23:58:02.704Z,24.07
